createdAt,value
2022-08-22T00:01:55.239Z,1.13
2022-08-22T00:02:58.751Z,0.60
2022-08-22T00:06:14.872Z,0.60
2022-08-22T00:10:34.243Z,1.10
2022-08-22T00:14:59.858Z,0.60
2022-08-22T00:19:28.396Z,0.60
2022-08-22T00:23:53.396Z,1.02
2022-08-22T00:28:18.871Z,0.52
2022-08-22T00:32:42.508Z,0.88
2022-08-22T00:37:16.886Z,0.60
2022-08-22T00:42:02.553Z,0.70
2022-08-22T00:46:12.318Z,1.00
2022-08-22T00:50:37.008Z,0.80
2022-08-22T00:54:59.854Z,1.88
2022-08-22T00:59:23.415Z,1.35
2022-08-22T01:03:52.605Z,0.70
2022-08-22T01:08:38.060Z,0.70
2022-08-22T01:12:55.480Z,0.52
2022-08-22T01:17:28.451Z,0.50
2022-08-22T01:22:13.625Z,1.00
2022-08-22T01:26:41.797Z,0.75
2022-08-22T01:31:25.841Z,0.93
2022-08-22T01:35:44.596Z,1.38
2022-08-22T01:40:09.809Z,1.00
2022-08-22T01:44:49.160Z,1.30
2022-08-22T01:49:20.931Z,1.40
2022-08-22T01:53:36.232Z,1.58
2022-08-22T01:57:54.958Z,2.13
2022-08-22T02:02:20.851Z,2.15
2022-08-22T02:06:49.295Z,2.35
2022-08-22T02:11:05.982Z,1.75
2022-08-22T02:15:45.155Z,1.95
2022-08-22T02:20:07.906Z,1.83
2022-08-22T02:24:19.228Z,2.65
2022-08-22T02:28:25.868Z,2.17
2022-08-22T02:32:41.338Z,2.38
2022-08-22T02:37:02.568Z,2.30
2022-08-22T02:41:25.219Z,2.30
2022-08-22T02:45:41.516Z,1.95
2022-08-22T02:49:50.923Z,1.52
2022-08-22T02:54:01.404Z,1.40
2022-08-22T02:58:27.166Z,1.40
2022-08-22T03:02:59.311Z,1.63
2022-08-22T03:07:25.572Z,2.08
2022-08-22T03:11:38.382Z,1.85
2022-08-22T03:16:12.744Z,2.15
2022-08-22T03:20:59.070Z,2.03
2022-08-22T03:25:14.674Z,2.47
2022-08-22T03:29:27.371Z,2.10
2022-08-22T03:33:34.308Z,2.60
2022-08-22T03:37:42.857Z,3.67
2022-08-22T03:42:02.585Z,3.97
2022-08-22T03:46:21.536Z,3.40
2022-08-22T03:51:07.045Z,3.20
2022-08-22T03:55:28.300Z,3.25
2022-08-22T04:00:00.558Z,3.37
2022-08-22T04:09:03.072Z,3.38
2022-08-22T04:13:35.469Z,3.67
2022-08-22T04:18:07.025Z,3.53
2022-08-22T04:22:53.520Z,3.25
2022-08-22T04:27:23.466Z,3.65
2022-08-22T04:31:36.634Z,4.50
2022-08-22T04:35:45.809Z,4.60
2022-08-22T04:40:01.358Z,3.85
2022-08-22T04:44:36.090Z,4.40
2022-08-22T04:48:54.171Z,4.60
2022-08-22T04:53:25.880Z,4.65
2022-08-22T04:57:45.422Z,4.22
2022-08-22T05:01:59.171Z,5.22
2022-08-22T05:06:08.037Z,4.45
2022-08-22T05:10:39.184Z,4.50
2022-08-22T05:14:54.467Z,4.45
2022-08-22T05:19:27.099Z,3.97
2022-08-22T05:23:48.690Z,4.65
2022-08-22T05:28:15.781Z,4.15
2022-08-22T05:32:31.997Z,4.63
2022-08-22T05:36:43.716Z,4.82
2022-08-22T05:40:57.611Z,5.00
2022-08-22T05:45:12.207Z,4.75
2022-08-22T05:49:37.243Z,4.88
2022-08-22T05:53:49.670Z,5.07
2022-08-22T05:58:17.499Z,5.10
2022-08-22T06:02:36.723Z,4.35
2022-08-22T06:06:54.605Z,5.07
2022-08-22T06:11:15.279Z,5.43
2022-08-22T06:15:44.793Z,5.22
2022-08-22T06:19:55.083Z,6.25
2022-08-22T06:24:05.174Z,7.00
2022-08-22T06:28:17.279Z,6.90
2022-08-22T06:32:59.368Z,6.05
2022-08-22T06:37:02.011Z,5.72
2022-08-22T06:41:09.342Z,6.63
2022-08-22T06:45:22.063Z,6.93
2022-08-22T06:49:32.564Z,6.22
2022-08-22T06:53:53.683Z,5.22
2022-08-22T06:58:07.120Z,4.97
2022-08-22T07:02:36.347Z,5.95
2022-08-22T07:06:50.194Z,6.05
2022-08-22T07:11:26.055Z,6.03
2022-08-22T07:15:37.108Z,5.38
2022-08-22T07:19:56.008Z,5.20
2022-08-22T07:24:03.079Z,6.13
2022-08-22T07:28:36.912Z,5.40
2022-08-22T07:33:21.028Z,5.38
2022-08-22T07:37:57.828Z,4.45
2022-08-22T07:42:18.806Z,3.90
2022-08-22T07:46:31.900Z,4.65
2022-08-22T07:50:48.134Z,3.38
2022-08-22T07:55:02.525Z,3.50
2022-08-22T07:59:14.669Z,4.22
2022-08-22T08:03:23.435Z,3.55
2022-08-22T08:07:32.221Z,3.90
2022-08-22T08:11:41.678Z,3.83
2022-08-22T08:15:50.793Z,2.55
2022-08-22T08:19:58.661Z,2.60
2022-08-22T08:24:08.489Z,2.95
2022-08-22T08:28:34.206Z,3.10
2022-08-22T08:32:43.200Z,2.10
2022-08-22T08:37:09.841Z,2.10
2022-08-22T08:41:57.741Z,1.60
2022-08-22T08:46:34.061Z,2.03
2022-08-22T08:50:59.373Z,1.83
2022-08-22T08:55:32.932Z,2.17
2022-08-22T09:00:05.580Z,1.75
2022-08-22T09:04:33.383Z,1.67
2022-08-22T09:09:12.212Z,1.27
2022-08-22T09:13:29.033Z,1.20
2022-08-22T09:18:13.413Z,1.83
2022-08-22T09:22:33.471Z,1.05
2022-08-22T09:27:21.812Z,1.42
2022-08-22T09:31:48.135Z,0.82
2022-08-22T09:36:05.612Z,1.17
2022-08-22T09:45:19.161Z,1.17
2022-08-22T09:49:47.225Z,1.17
2022-08-22T09:54:16.167Z,1.00
2022-08-22T09:58:46.684Z,0.90
2022-08-22T10:03:33.287Z,0.98
2022-08-22T10:08:05.855Z,0.77
2022-08-22T10:12:19.597Z,0.90
2022-08-22T10:16:53.074Z,1.67
2022-08-22T10:21:15.828Z,0.80
2022-08-22T10:25:48.488Z,0.65
2022-08-22T10:30:16.559Z,1.02
2022-08-22T10:34:30.196Z,0.93
2022-08-22T10:38:47.085Z,1.00
2022-08-22T10:43:09.379Z,1.17
2022-08-22T10:47:21.382Z,1.42
2022-08-22T10:51:47.860Z,0.70
2022-08-22T10:56:04.820Z,1.23
2022-08-22T11:00:35.850Z,1.75
2022-08-22T11:05:03.369Z,1.10
2022-08-22T11:09:25.928Z,1.58
2022-08-22T11:14:19.826Z,0.90
2022-08-22T11:18:33.989Z,1.10
2022-08-22T11:23:12.681Z,1.08
2022-08-22T11:27:40.196Z,0.50
2022-08-22T11:31:53.772Z,1.08
2022-08-22T11:36:30.894Z,0.70
2022-08-22T11:40:46.915Z,1.15
2022-08-22T11:44:59.924Z,0.55
2022-08-22T11:49:16.782Z,1.10
2022-08-22T11:53:43.375Z,1.13
2022-08-22T11:58:02.692Z,0.60
2022-08-22T12:02:35.451Z,0.60
2022-08-22T12:07:10.179Z,0.70
2022-08-22T12:11:47.197Z,1.00
2022-08-22T12:16:14.609Z,0.70
2022-08-22T12:20:46.942Z,0.98
2022-08-22T12:25:34.919Z,0.75
2022-08-22T12:30:05.965Z,0.65
2022-08-22T12:34:24.953Z,1.02
2022-08-22T12:38:50.462Z,0.70
2022-08-22T12:43:23.222Z,0.60
2022-08-22T12:48:08.427Z,1.10
2022-08-22T12:52:25.035Z,0.50
2022-08-22T12:57:00.314Z,1.20
2022-08-22T13:01:08.999Z,0.90
2022-08-22T13:05:21.655Z,0.40
2022-08-22T13:09:38.784Z,0.80
2022-08-22T13:13:56.511Z,0.57
2022-08-22T13:18:29.313Z,0.60
2022-08-22T13:22:41.556Z,0.70
2022-08-22T13:26:59.011Z,0.50
2022-08-22T13:31:07.640Z,0.82
2022-08-22T13:35:54.841Z,0.60
2022-08-22T13:40:07.556Z,0.47
2022-08-22T13:44:21.751Z,0.40
2022-08-22T13:48:49.497Z,0.60
2022-08-22T13:53:08.039Z,0.80
2022-08-22T13:57:35.010Z,0.40
2022-08-22T14:02:15.245Z,0.50
2022-08-22T14:06:38.033Z,0.43
2022-08-22T14:11:02.247Z,0.50
2022-08-22T14:15:21.388Z,0.93
2022-08-22T14:19:52.837Z,0.90
2022-08-22T14:24:36.029Z,0.55
2022-08-22T14:28:56.588Z,0.60
2022-08-22T14:33:24.625Z,0.63
2022-08-22T14:37:38.854Z,0.47
2022-08-22T14:41:57.058Z,0.70
2022-08-22T14:46:10.199Z,0.75
2022-08-22T14:50:53.146Z,0.40
2022-08-22T14:55:08.660Z,0.50
2022-08-22T14:59:43.440Z,0.57
2022-08-22T15:04:19.279Z,0.30
2022-08-22T15:08:57.087Z,0.70
2022-08-22T15:13:08.163Z,0.50
2022-08-22T15:17:37.133Z,0.50
2022-08-22T15:21:45.564Z,0.70
2022-08-22T15:26:03.667Z,0.60
2022-08-22T15:30:18.655Z,0.52
2022-08-22T15:34:41.928Z,0.50
2022-08-22T15:39:16.059Z,0.77
2022-08-22T15:43:33.791Z,0.40
2022-08-22T15:47:49.385Z,0.30
2022-08-22T15:52:02.122Z,0.50
2022-08-22T15:56:11.937Z,0.43
2022-08-22T16:00:28.433Z,0.65
2022-08-22T16:04:49.745Z,0.60
2022-08-22T16:08:56.508Z,0.43
2022-08-22T16:13:27.488Z,0.60
2022-08-22T16:17:44.558Z,0.70
2022-08-22T16:21:52.099Z,0.50
2022-08-22T16:25:58.783Z,0.82
2022-08-22T16:30:11.563Z,0.43
2022-08-22T16:34:18.369Z,0.50
2022-08-22T16:38:36.589Z,0.30
2022-08-22T16:42:46.446Z,0.60
2022-08-22T16:46:55.410Z,0.45
2022-08-22T16:51:15.550Z,0.40
2022-08-22T16:55:31.424Z,0.70
2022-08-22T17:00:05.267Z,0.60
2022-08-22T17:04:29.927Z,0.50
2022-08-22T17:09:13.029Z,0.40
2022-08-22T17:13:26.840Z,0.70
2022-08-22T17:17:40.444Z,0.60
2022-08-22T17:22:12.765Z,0.40
2022-08-22T17:26:49.621Z,0.55
2022-08-22T17:35:25.083Z,0.73
2022-08-22T17:40:02.001Z,0.60
2022-08-22T17:44:17.181Z,0.52
2022-08-22T17:48:48.203Z,0.65
2022-08-22T17:53:06.381Z,0.75
2022-08-22T17:57:34.271Z,0.70
2022-08-22T18:01:58.865Z,0.98
2022-08-22T18:06:09.844Z,1.08
2022-08-22T18:10:24.240Z,0.60
2022-08-22T18:14:52.424Z,0.80
2022-08-22T18:19:12.288Z,0.50
2022-08-22T18:23:36.041Z,1.17
2022-08-22T18:27:51.895Z,0.80
2022-08-22T18:32:34.958Z,0.70
2022-08-22T18:36:53.247Z,0.40
2022-08-22T18:41:26.631Z,0.60
2022-08-22T18:45:48.294Z,0.50
2022-08-22T18:49:56.215Z,0.60
2022-08-22T18:54:06.884Z,0.60
2022-08-22T18:59:06.073Z,0.53
2022-08-22T19:03:46.834Z,0.60
2022-08-22T19:08:08.540Z,0.50
2022-08-22T19:12:35.585Z,0.50
2022-08-22T19:17:06.944Z,0.50
2022-08-22T19:21:38.206Z,0.65
2022-08-22T19:26:26.199Z,1.02
2022-08-22T19:30:46.609Z,0.55
2022-08-22T19:35:21.486Z,0.57
2022-08-22T19:39:40.514Z,1.23
2022-08-22T19:43:47.910Z,1.05
2022-08-22T19:48:14.221Z,0.75
2022-08-22T19:52:51.730Z,0.63
2022-08-22T19:57:13.812Z,1.02
2022-08-22T20:01:58.028Z,0.50
2022-08-22T20:06:43.079Z,0.50
2022-08-22T20:10:58.582Z,0.60
2022-08-22T20:15:26.733Z,1.00
2022-08-22T20:24:30.599Z,0.80
2022-08-22T20:28:47.287Z,1.20
2022-08-22T20:32:59.895Z,1.05
2022-08-22T20:37:29.455Z,1.08
2022-08-22T20:41:46.188Z,1.05
2022-08-22T20:46:05.739Z,0.95
2022-08-22T20:50:13.797Z,0.70
2022-08-22T20:54:24.188Z,0.95
2022-08-22T20:58:37.730Z,1.45
2022-08-22T21:02:53.717Z,0.80
2022-08-22T21:07:01.089Z,1.35
2022-08-22T21:11:27.295Z,1.20
2022-08-22T21:15:40.938Z,1.20
2022-08-22T21:19:48.051Z,1.23
2022-08-22T21:24:07.695Z,1.10
2022-08-22T21:28:35.895Z,1.00
2022-08-22T21:32:47.041Z,1.90
2022-08-22T21:36:59.438Z,0.90
2022-08-22T21:41:06.218Z,1.85
2022-08-22T21:45:30.040Z,1.98
2022-08-22T21:49:36.766Z,1.52
2022-08-22T21:53:43.476Z,1.20
2022-08-22T21:58:32.637Z,1.67
2022-08-22T22:02:43.873Z,2.15
2022-08-22T22:06:50.762Z,1.17
2022-08-22T22:11:01.041Z,1.23
2022-08-22T22:15:10.012Z,1.42
2022-08-22T22:19:16.735Z,1.67
2022-08-22T22:23:24.796Z,1.60
2022-08-22T22:27:32.240Z,1.25
2022-08-22T22:31:39.220Z,1.52
2022-08-22T22:35:46.431Z,1.48
2022-08-22T22:39:54.706Z,2.30
2022-08-22T22:44:02.163Z,0.90
2022-08-22T22:48:09.106Z,1.35
2022-08-22T22:52:15.817Z,1.50
2022-08-22T22:56:23.864Z,1.48
2022-08-22T23:00:33.314Z,1.17
2022-08-22T23:04:43.871Z,1.50
2022-08-22T23:08:51.137Z,1.50
2022-08-22T23:12:58.570Z,1.48
2022-08-22T23:17:05.358Z,1.08
2022-08-22T23:21:17.589Z,1.25
2022-08-22T23:25:24.302Z,1.45
2022-08-22T23:29:31.196Z,2.17
2022-08-22T23:33:37.977Z,3.55
2022-08-22T23:37:44.885Z,2.90
2022-08-22T23:41:52.079Z,3.70
2022-08-22T23:45:58.875Z,2.33
2022-08-22T23:50:06.560Z,2.85
2022-08-22T23:54:13.936Z,1.98
2022-08-22T23:58:21.124Z,2.90
